Terminal Aerodrome Forecast
Issued by NWS Atlanta, GA

Home | Current Version | Previous Version | Text Only | Print | Product List | Glossary On
Versions: 1 2 3 4 5 6 7 8 9 10 11 12 13 14 15 16 17 18 19 20 21 22 23 24 25 26 27 28 29 30 31
000
FTAK31 PAJN 282300
TAFAHN
TAF
PAHN 282339Z 2900/2924 29010KT 4SM -SN SCT010 BKN025 OVC040
      TEMPO 2900/2904 1SM -SN BKN010
     FM290400 29010KT 1/2SM SN FZFG FEW002 BKN004 OVC012
     FM291800 VRB06KT 3SM -SN BR SCT004 OVC010
     FM292200 12010KT 4SM -SN SCT008 SCT012 OVC025
      AMD LTD TO CLD VIS AND WIND=

USA.gov is the U.S. government's official web portal to all federal, state and local government web resources and services.